UAL1441 KIAD-KORF
Flight info
| Callsign | UAL1441 |
|---|---|
| Flight time | 0h 39m |
| Altitude | 21000 |
| Route | JDUBB4 JDUBB BNTLY WAIKS |
| Aircraft | B739/M-VGDW/C |
Departure
| Time | 2026-04-25 15:14 |
|---|---|
| Airport | Washington Dulles International Airport (KIAD) |
Arrival
| Time | 2026-04-25 15:53 |
|---|---|
| Airport | Norfolk International Airport (KORF) |
| Time | Latitude | Longitude | Altitude | Speed | Heading |
|---|---|---|---|---|---|
| 2026-04-25 14:27 | 38.94491 | -77.44799 | 299 ft | 0 kts | 352° |
| 2026-04-25 14:40 | 38.94467 | -77.44794 | 299 ft | 4 kts | 352° |
| 2026-04-25 14:40 | 38.94438 | -77.44788 | 302 ft | 4 kts | 332° |
| 2026-04-25 14:41 | 38.94421 | -77.44760 | 299 ft | 2 kts | 279° |
| 2026-04-25 14:42 | 38.94420 | -77.44766 | 299 ft | 1 kts | 261° |
| 2026-04-25 14:43 | 38.94418 | -77.44778 | 300 ft | 4 kts | 261° |
| 2026-04-25 14:43 | 38.94412 | -77.44873 | 303 ft | 16 kts | 271° |
| 2026-04-25 14:43 | 38.94414 | -77.45054 | 302 ft | 23 kts | 270° |
| 2026-04-25 14:43 | 38.94414 | -77.45253 | 299 ft | 22 kts | 269° |
| 2026-04-25 14:44 | 38.94415 | -77.45448 | 301 ft | 22 kts | 275° |
| 2026-04-25 14:44 | 38.94418 | -77.45524 | 299 ft | 0 kts | 271° |
| 2026-04-25 14:46 | 38.94418 | -77.45634 | 299 ft | 23 kts | 271° |
| 2026-04-25 14:46 | 38.94566 | -77.45725 | 301 ft | 32 kts | 0° |
| 2026-04-25 14:46 | 38.94791 | -77.45720 | 301 ft | 32 kts | 1° |
| 2026-04-25 14:46 | 38.95012 | -77.45717 | 301 ft | 32 kts | 0° |
| 2026-04-25 14:47 | 38.95231 | -77.45714 | 302 ft | 31 kts | 1° |
| 2026-04-25 14:47 | 38.95373 | -77.45711 | 300 ft | 31 kts | 1° |
| 2026-04-25 14:47 | 38.95656 | -77.45707 | 301 ft | 30 kts | 1° |
| 2026-04-25 14:47 | 38.95867 | -77.45702 | 301 ft | 30 kts | 0° |
| 2026-04-25 14:48 | 38.96075 | -77.45702 | 300 ft | 30 kts | 360° |
| 2026-04-25 14:48 | 38.96283 | -77.45699 | 300 ft | 24 kts | 1° |
| 2026-04-25 14:48 | 38.96439 | -77.45696 | 301 ft | 22 kts | 0° |
| 2026-04-25 14:48 | 38.96522 | -77.45695 | 299 ft | 6 kts | 0° |
| 2026-04-25 14:49 | 38.96570 | -77.45694 | 301 ft | 8 kts | 1° |
| 2026-04-25 14:49 | 38.96631 | -77.45693 | 299 ft | 9 kts | 1° |
| 2026-04-25 14:49 | 38.96651 | -77.45693 | 301 ft | 0 kts | 1° |
| 2026-04-25 14:49 | 38.96652 | -77.45693 | 301 ft | 1 kts | 1° |
| 2026-04-25 14:50 | 38.96664 | -77.45692 | 301 ft | 3 kts | 1° |
| 2026-04-25 14:50 | 38.96676 | -77.45692 | 300 ft | 0 kts | 0° |
| 2026-04-25 14:54 | 38.96713 | -77.45692 | 302 ft | 10 kts | 0° |
| 2026-04-25 14:54 | 38.96784 | -77.45691 | 302 ft | 9 kts | 1° |
| 2026-04-25 14:54 | 38.96797 | -77.45690 | 302 ft | 0 kts | 1° |
| 2026-04-25 14:56 | 38.96798 | -77.45690 | 302 ft | 0 kts | 1° |
| 2026-04-25 14:56 | 38.96815 | -77.45690 | 300 ft | 4 kts | 0° |
| 2026-04-25 14:56 | 38.96845 | -77.45690 | 302 ft | 0 kts | 360° |
| 2026-04-25 14:56 | 38.96846 | -77.45690 | 301 ft | 0 kts | 360° |
| 2026-04-25 14:57 | 38.96892 | -77.45691 | 300 ft | 12 kts | 359° |
| 2026-04-25 14:57 | 38.96967 | -77.45696 | 302 ft | 9 kts | 356° |
| 2026-04-25 14:57 | 38.96988 | -77.45698 | 300 ft | 0 kts | 355° |
| 2026-04-25 14:59 | 38.96997 | -77.45704 | 300 ft | 3 kts | 324° |
| 2026-04-25 14:59 | 38.97000 | -77.45709 | 300 ft | 0 kts | 309° |
| 2026-04-25 15:02 | 38.97005 | -77.45716 | 309 ft | 2 kts | 309° |
| 2026-04-25 15:02 | 38.97010 | -77.45726 | 308 ft | 4 kts | 301° |
| 2026-04-25 15:02 | 38.97015 | -77.45798 | 303 ft | 9 kts | 271° |
| 2026-04-25 15:02 | 38.97015 | -77.45807 | 303 ft | 0 kts | 271° |
| 2026-04-25 15:11 | 38.97015 | -77.45823 | 303 ft | 9 kts | 271° |
| 2026-04-25 15:11 | 38.97027 | -77.45923 | 303 ft | 8 kts | 230° |
| 2026-04-25 15:12 | 38.96999 | -77.45934 | 305 ft | 0 kts | 181° |
| 2026-04-25 15:13 | 38.96617 | -77.45939 | 299 ft | 86 kts | 181° |
| 2026-04-25 15:13 | 38.95821 | -77.45952 | 305 ft | 140 kts | 180° |
| 2026-04-25 15:14 | 38.94694 | -77.45979 | 353 ft | 178 kts | 179° |
| 2026-04-25 15:14 | 38.93467 | -77.45987 | 994 ft | 174 kts | 176° |
| 2026-04-25 15:14 | 38.92228 | -77.45983 | 1561 ft | 183 kts | 176° |
| 2026-04-25 15:14 | 38.90926 | -77.45955 | 2052 ft | 191 kts | 175° |
| 2026-04-25 15:15 | 38.89525 | -77.45895 | 2307 ft | 211 kts | 175° |
| 2026-04-25 15:15 | 38.88018 | -77.45820 | 2725 ft | 221 kts | 176° |
| 2026-04-25 15:15 | 38.86498 | -77.45789 | 3270 ft | 226 kts | 185° |
| 2026-04-25 15:15 | 38.84887 | -77.46120 | 3589 ft | 246 kts | 191° |
| 2026-04-25 15:16 | 38.83152 | -77.46575 | 4174 ft | 260 kts | 193° |
| 2026-04-25 15:16 | 38.81354 | -77.47046 | 4920 ft | 267 kts | 193° |
| 2026-04-25 15:16 | 38.77683 | -77.47957 | 6707 ft | 268 kts | 193° |
| 2026-04-25 15:17 | 38.73974 | -77.48843 | 8359 ft | 273 kts | 193° |
| 2026-04-25 15:17 | 38.72099 | -77.49282 | 9201 ft | 275 kts | 192° |
| 2026-04-25 15:17 | 38.70207 | -77.49720 | 9743 ft | 277 kts | 192° |
| 2026-04-25 15:18 | 38.68301 | -77.50158 | 9981 ft | 280 kts | 192° |
| 2026-04-25 15:18 | 38.64327 | -77.51070 | 10303 ft | 313 kts | 192° |
| 2026-04-25 15:18 | 38.62103 | -77.51579 | 10480 ft | 336 kts | 192° |
| 2026-04-25 15:19 | 38.59743 | -77.52117 | 10825 ft | 351 kts | 192° |
| 2026-04-25 15:19 | 38.58133 | -77.52481 | 11198 ft | 356 kts | 192° |
| 2026-04-25 15:19 | 38.54837 | -77.53226 | 12061 ft | 363 kts | 192° |
| 2026-04-25 15:19 | 38.52334 | -77.53791 | 12697 ft | 367 kts | 192° |
| 2026-04-25 15:20 | 38.49788 | -77.54367 | 13326 ft | 373 kts | 193° |
| 2026-04-25 15:20 | 38.47216 | -77.54947 | 13900 ft | 379 kts | 193° |
| 2026-04-25 15:20 | 38.44629 | -77.55532 | 13959 ft | 386 kts | 193° |
| 2026-04-25 15:20 | 38.41957 | -77.56137 | 13987 ft | 393 kts | 193° |
| 2026-04-25 15:21 | 38.39319 | -77.56995 | 13977 ft | 388 kts | 206° |
| 2026-04-25 15:21 | 38.37065 | -77.58812 | 14005 ft | 383 kts | 218° |
| 2026-04-25 15:21 | 38.34884 | -77.60786 | 13992 ft | 384 kts | 217° |
| 2026-04-25 15:21 | 38.32675 | -77.62702 | 13988 ft | 384 kts | 215° |
| 2026-04-25 15:22 | 38.30293 | -77.64169 | 13961 ft | 389 kts | 197° |
| 2026-04-25 15:22 | 38.27597 | -77.64557 | 13971 ft | 393 kts | 180° |
| 2026-04-25 15:22 | 38.24874 | -77.64125 | 13982 ft | 395 kts | 173° |
| 2026-04-25 15:22 | 38.22158 | -77.63546 | 13961 ft | 396 kts | 173° |
| 2026-04-25 15:23 | 38.19442 | -77.62958 | 13963 ft | 396 kts | 173° |
| 2026-04-25 15:23 | 38.16720 | -77.62386 | 13963 ft | 396 kts | 173° |
| 2026-04-25 15:23 | 38.13999 | -77.61834 | 13964 ft | 396 kts | 173° |
| 2026-04-25 15:23 | 38.11271 | -77.61293 | 13967 ft | 396 kts | 173° |
| 2026-04-25 15:24 | 38.08543 | -77.60757 | 13970 ft | 396 kts | 173° |
| 2026-04-25 15:24 | 38.05820 | -77.60175 | 13967 ft | 397 kts | 169° |
| 2026-04-25 15:24 | 38.03178 | -77.59089 | 13967 ft | 400 kts | 160° |
| 2026-04-25 15:24 | 38.01479 | -77.58172 | 13971 ft | 400 kts | 159° |
| 2026-04-25 15:25 | 37.98091 | -77.56304 | 13956 ft | 401 kts | 159° |
| 2026-04-25 15:25 | 37.95529 | -77.54892 | 13962 ft | 400 kts | 159° |
| 2026-04-25 15:25 | 37.92970 | -77.53491 | 13965 ft | 400 kts | 159° |
| 2026-04-25 15:25 | 37.90411 | -77.52101 | 13966 ft | 400 kts | 159° |
| 2026-04-25 15:26 | 37.87853 | -77.50720 | 13970 ft | 399 kts | 159° |
| 2026-04-25 15:26 | 37.85323 | -77.49361 | 13972 ft | 399 kts | 159° |
| 2026-04-25 15:26 | 37.82765 | -77.47990 | 13970 ft | 399 kts | 159° |
| 2026-04-25 15:26 | 37.80204 | -77.46620 | 13971 ft | 399 kts | 159° |
| 2026-04-25 15:27 | 37.77642 | -77.45252 | 13973 ft | 399 kts | 159° |
| 2026-04-25 15:27 | 37.75083 | -77.43886 | 13970 ft | 399 kts | 159° |
| 2026-04-25 15:27 | 37.69955 | -77.41151 | 13972 ft | 399 kts | 159° |
| 2026-04-25 15:28 | 37.67390 | -77.39785 | 13972 ft | 399 kts | 159° |
| 2026-04-25 15:28 | 37.64857 | -77.38437 | 13969 ft | 399 kts | 159° |
| 2026-04-25 15:28 | 37.62296 | -77.37074 | 13972 ft | 399 kts | 159° |
| 2026-04-25 15:28 | 37.59733 | -77.35712 | 13955 ft | 399 kts | 159° |
| 2026-04-25 15:29 | 37.57171 | -77.34351 | 13953 ft | 399 kts | 159° |
| 2026-04-25 15:29 | 37.54609 | -77.32991 | 13952 ft | 399 kts | 159° |
| 2026-04-25 15:29 | 37.52035 | -77.31626 | 13952 ft | 399 kts | 159° |
| 2026-04-25 15:29 | 37.49470 | -77.30267 | 13948 ft | 399 kts | 159° |
| 2026-04-25 15:30 | 37.46941 | -77.28927 | 13953 ft | 399 kts | 159° |
| 2026-04-25 15:30 | 37.44384 | -77.27574 | 13954 ft | 398 kts | 159° |
| 2026-04-25 15:30 | 37.41823 | -77.26220 | 13951 ft | 398 kts | 159° |
| 2026-04-25 15:30 | 37.39270 | -77.24871 | 13953 ft | 398 kts | 159° |
| 2026-04-25 15:31 | 37.36712 | -77.23520 | 13954 ft | 398 kts | 159° |
| 2026-04-25 15:31 | 37.34190 | -77.22189 | 13952 ft | 398 kts | 160° |
| 2026-04-25 15:31 | 37.31602 | -77.20825 | 13948 ft | 398 kts | 160° |
| 2026-04-25 15:31 | 37.29085 | -77.19499 | 13946 ft | 398 kts | 160° |
| 2026-04-25 15:32 | 37.26530 | -77.18154 | 13945 ft | 398 kts | 160° |
| 2026-04-25 15:32 | 37.23979 | -77.16811 | 13941 ft | 398 kts | 160° |
| 2026-04-25 15:32 | 37.21416 | -77.15464 | 13941 ft | 398 kts | 160° |
| 2026-04-25 15:33 | 37.16304 | -77.12779 | 13932 ft | 398 kts | 160° |
| 2026-04-25 15:33 | 37.13744 | -77.11435 | 13936 ft | 398 kts | 160° |
| 2026-04-25 15:33 | 37.11181 | -77.10092 | 13933 ft | 398 kts | 160° |
| 2026-04-25 15:33 | 37.08622 | -77.08741 | 13936 ft | 399 kts | 158° |
| 2026-04-25 15:34 | 37.06310 | -77.06803 | 13926 ft | 404 kts | 135° |
| 2026-04-25 15:34 | 37.04683 | -77.03942 | 13940 ft | 406 kts | 117° |
| 2026-04-25 15:34 | 37.03815 | -77.00626 | 13947 ft | 408 kts | 103° |
| 2026-04-25 15:34 | 37.03402 | -76.98278 | 13943 ft | 408 kts | 103° |
| 2026-04-25 15:35 | 37.02044 | -76.90176 | 13928 ft | 409 kts | 102° |
| 2026-04-25 15:35 | 37.01456 | -76.86715 | 13915 ft | 403 kts | 103° |
| 2026-04-25 15:35 | 37.00866 | -76.83308 | 13917 ft | 396 kts | 103° |
| 2026-04-25 15:36 | 36.99710 | -76.76748 | 13425 ft | 379 kts | 103° |
| 2026-04-25 15:36 | 36.99146 | -76.73586 | 12892 ft | 377 kts | 103° |
| 2026-04-25 15:36 | 36.98569 | -76.70361 | 12393 ft | 374 kts | 103° |
| 2026-04-25 15:37 | 36.98001 | -76.67194 | 11935 ft | 370 kts | 103° |
| 2026-04-25 15:37 | 36.97447 | -76.64108 | 11499 ft | 367 kts | 103° |
| 2026-04-25 15:37 | 36.96890 | -76.61006 | 11046 ft | 363 kts | 104° |
| 2026-04-25 15:37 | 36.96348 | -76.57995 | 10944 ft | 345 kts | 104° |
| 2026-04-25 15:38 | 36.95835 | -76.55146 | 10834 ft | 328 kts | 104° |
| 2026-04-25 15:38 | 36.95343 | -76.52411 | 10729 ft | 313 kts | 104° |
| 2026-04-25 15:38 | 36.94879 | -76.49843 | 10639 ft | 298 kts | 104° |
| 2026-04-25 15:38 | 36.94422 | -76.47321 | 10368 ft | 291 kts | 104° |
| 2026-04-25 15:39 | 36.93981 | -76.44892 | 9959 ft | 288 kts | 104° |
| 2026-04-25 15:39 | 36.93539 | -76.42461 | 9493 ft | 287 kts | 104° |
| 2026-04-25 15:39 | 36.93098 | -76.40037 | 9008 ft | 285 kts | 104° |
| 2026-04-25 15:39 | 36.92658 | -76.37616 | 8540 ft | 283 kts | 104° |
| 2026-04-25 15:40 | 36.92222 | -76.35223 | 8085 ft | 281 kts | 104° |
| 2026-04-25 15:40 | 36.92081 | -76.34447 | 7944 ft | 281 kts | 104° |
| 2026-04-25 15:40 | 36.91355 | -76.30473 | 7256 ft | 279 kts | 104° |
| 2026-04-25 15:40 | 36.90921 | -76.28117 | 6808 ft | 278 kts | 104° |
| 2026-04-25 15:41 | 36.90496 | -76.25793 | 6465 ft | 277 kts | 104° |
| 2026-04-25 15:41 | 36.90065 | -76.23434 | 6137 ft | 278 kts | 104° |
| 2026-04-25 15:41 | 36.89640 | -76.21086 | 6005 ft | 276 kts | 104° |
| 2026-04-25 15:41 | 36.89204 | -76.18725 | 5988 ft | 280 kts | 107° |
| 2026-04-25 15:42 | 36.88312 | -76.16625 | 5944 ft | 270 kts | 139° |
| 2026-04-25 15:42 | 36.86740 | -76.15577 | 5968 ft | 251 kts | 174° |
| 2026-04-25 15:42 | 36.85098 | -76.15869 | 5954 ft | 235 kts | 211° |
| 2026-04-25 15:42 | 36.83789 | -76.17014 | 5977 ft | 234 kts | 218° |
| 2026-04-25 15:43 | 36.82483 | -76.18246 | 5954 ft | 235 kts | 219° |
| 2026-04-25 15:43 | 36.81192 | -76.19477 | 5955 ft | 232 kts | 219° |
| 2026-04-25 15:43 | 36.79909 | -76.20704 | 5969 ft | 234 kts | 219° |
| 2026-04-25 15:43 | 36.78619 | -76.21943 | 5944 ft | 231 kts | 219° |
| 2026-04-25 15:44 | 36.77348 | -76.23161 | 5950 ft | 230 kts | 219° |
| 2026-04-25 15:44 | 36.76085 | -76.24373 | 5677 ft | 228 kts | 219° |
| 2026-04-25 15:44 | 36.74823 | -76.25582 | 5236 ft | 229 kts | 219° |
| 2026-04-25 15:44 | 36.73577 | -76.26776 | 4895 ft | 228 kts | 219° |
| 2026-04-25 15:45 | 36.72325 | -76.27978 | 4550 ft | 227 kts | 219° |
| 2026-04-25 15:45 | 36.71078 | -76.29173 | 4252 ft | 225 kts | 219° |
| 2026-04-25 15:45 | 36.69835 | -76.30358 | 3846 ft | 224 kts | 219° |
| 2026-04-25 15:45 | 36.69420 | -76.30756 | 3779 ft | 219 kts | 219° |
| 2026-04-25 15:46 | 36.67515 | -76.32573 | 3516 ft | 202 kts | 219° |
| 2026-04-25 15:46 | 36.66407 | -76.33637 | 3192 ft | 201 kts | 220° |
| 2026-04-25 15:46 | 36.65295 | -76.34709 | 3070 ft | 204 kts | 220° |
| 2026-04-25 15:46 | 36.64179 | -76.35766 | 3013 ft | 198 kts | 219° |
| 2026-04-25 15:47 | 36.63130 | -76.36866 | 2976 ft | 197 kts | 236° |
| 2026-04-25 15:47 | 36.62819 | -76.38444 | 3012 ft | 197 kts | 279° |
| 2026-04-25 15:47 | 36.63553 | -76.39895 | 3023 ft | 210 kts | 322° |
| 2026-04-25 15:47 | 36.64974 | -76.40359 | 3007 ft | 220 kts | 5° |
| 2026-04-25 15:48 | 36.66429 | -76.39658 | 3039 ft | 231 kts | 24° |
| 2026-04-25 15:48 | 36.67888 | -76.38742 | 3018 ft | 236 kts | 24° |
| 2026-04-25 15:48 | 36.69362 | -76.37819 | 3014 ft | 236 kts | 24° |
| 2026-04-25 15:48 | 36.70824 | -76.36908 | 3001 ft | 234 kts | 24° |
| 2026-04-25 15:49 | 36.72273 | -76.36007 | 2992 ft | 232 kts | 24° |
| 2026-04-25 15:49 | 36.73673 | -76.35127 | 3002 ft | 225 kts | 25° |
| 2026-04-25 15:49 | 36.74938 | -76.34104 | 3016 ft | 209 kts | 35° |
| 2026-04-25 15:49 | 36.76056 | -76.33007 | 3023 ft | 203 kts | 37° |
| 2026-04-25 15:50 | 36.77181 | -76.31902 | 2842 ft | 207 kts | 36° |
| 2026-04-25 15:50 | 36.78314 | -76.30803 | 2563 ft | 205 kts | 36° |
| 2026-04-25 15:50 | 36.79393 | -76.29692 | 2309 ft | 198 kts | 35° |
| 2026-04-25 15:50 | 36.80479 | -76.28681 | 2057 ft | 192 kts | 35° |
| 2026-04-25 15:51 | 36.81512 | -76.27696 | 1844 ft | 180 kts | 37° |
| 2026-04-25 15:51 | 36.81842 | -76.27376 | 1760 ft | 177 kts | 37° |
| 2026-04-25 15:51 | 36.83403 | -76.25860 | 1360 ft | 168 kts | 38° |
| 2026-04-25 15:51 | 36.84319 | -76.24971 | 1136 ft | 165 kts | 38° |
| 2026-04-25 15:52 | 36.85213 | -76.24104 | 928 ft | 164 kts | 38° |
| 2026-04-25 15:52 | 36.86097 | -76.23246 | 719 ft | 159 kts | 37° |
| 2026-04-25 15:52 | 36.86961 | -76.22410 | 506 ft | 156 kts | 38° |
| 2026-04-25 15:52 | 36.87811 | -76.21583 | 288 ft | 154 kts | 37° |
| 2026-04-25 15:53 | 36.88659 | -76.20760 | 69 ft | 153 kts | 37° |
| 2026-04-25 15:53 | 36.89464 | -76.19984 | 9 ft | 134 kts | 38° |
| 2026-04-25 15:53 | 36.90026 | -76.19442 | 5 ft | 45 kts | 38° |
| 2026-04-25 15:53 | 36.90204 | -76.19305 | 2 ft | 26 kts | 348° |
| 2026-04-25 15:54 | 36.90291 | -76.19423 | 2 ft | 10 kts | 255° |
| 2026-04-25 15:54 | 36.90242 | -76.19489 | 2 ft | 12 kts | 207° |
| 2026-04-25 15:54 | 36.90150 | -76.19546 | 2 ft | 18 kts | 208° |
| 2026-04-25 15:54 | 36.90032 | -76.19649 | 2 ft | 24 kts | 219° |
| 2026-04-25 15:55 | 36.89889 | -76.19791 | 2 ft | 28 kts | 217° |
| 2026-04-25 15:55 | 36.89720 | -76.19954 | 2 ft | 33 kts | 218° |
| 2026-04-25 15:55 | 36.89557 | -76.20111 | 4 ft | 22 kts | 217° |
| 2026-04-25 15:55 | 36.89532 | -76.20241 | 3 ft | 18 kts | 304° |
| 2026-04-25 15:56 | 36.89607 | -76.20300 | 6 ft | 10 kts | 25° |
| 2026-04-25 15:56 | 36.89624 | -76.20253 | 3 ft | 3 kts | 60° |
| 2026-04-25 15:56 | 36.89626 | -76.20247 | 2 ft | 0 kts | 60° |